createdAt,value
2022-12-31T00:01:28.019Z,4.15
2022-12-31T00:03:55.810Z,4.14
2022-12-31T00:06:33.756Z,4.31
2022-12-31T00:09:03.606Z,4.30
2022-12-31T00:11:31.066Z,4.21
2022-12-31T00:13:58.366Z,4.13
2022-12-31T00:16:30.564Z,4.10
2022-12-31T00:18:59.375Z,4.16
2022-12-31T00:21:28.490Z,4.10
2022-12-31T00:23:55.340Z,4.14
2022-12-31T00:26:27.051Z,4.08
2022-12-31T00:28:55.251Z,4.16
2022-12-31T00:31:24.439Z,4.15
2022-12-31T00:33:51.843Z,4.14
2022-12-31T00:36:27.193Z,4.10
2022-12-31T00:38:55.553Z,4.07
2022-12-31T00:41:23.727Z,4.13
2022-12-31T00:43:50.766Z,4.19
2022-12-31T00:46:17.997Z,4.14
2022-12-31T00:48:44.889Z,4.03
2022-12-31T00:51:14.473Z,4.07
2022-12-31T00:53:41.542Z,4.12
2022-12-31T00:56:14.046Z,4.04
2022-12-31T00:58:40.609Z,4.03
2022-12-31T01:01:17.972Z,4.04
2022-12-31T01:03:45.968Z,4.04
2022-12-31T01:06:12.879Z,3.94
2022-12-31T01:08:39.470Z,3.92
2022-12-31T01:11:18.992Z,3.80
2022-12-31T01:14:06.749Z,3.93
2022-12-31T01:16:37.567Z,3.99
2022-12-31T01:19:09.183Z,4.02
2022-12-31T01:21:38.583Z,4.05
2022-12-31T01:24:05.969Z,4.10
2022-12-31T01:26:32.640Z,4.19
2022-12-31T01:28:59.450Z,4.20
2022-12-31T01:31:26.178Z,4.24
2022-12-31T01:33:53.255Z,4.18
2022-12-31T01:36:26.211Z,4.16
2022-12-31T01:38:54.977Z,4.13
2022-12-31T01:41:24.997Z,4.17
2022-12-31T01:43:57.194Z,4.17
2022-12-31T01:46:37.216Z,4.25
2022-12-31T01:49:19.435Z,4.24
2022-12-31T01:51:57.563Z,4.26
2022-12-31T01:54:27.296Z,4.26
2022-12-31T01:56:55.391Z,4.11
2022-12-31T01:59:24.544Z,4.12
2022-12-31T02:01:54.546Z,4.17
2022-12-31T02:04:24.280Z,4.26
2022-12-31T02:06:56.325Z,4.23
2022-12-31T02:09:23.186Z,4.20
2022-12-31T02:11:49.777Z,3.97
2022-12-31T02:14:24.270Z,3.96
2022-12-31T02:17:16.327Z,3.88
2022-12-31T02:20:44.384Z,3.92
2022-12-31T02:24:05.077Z,4.02
2022-12-31T02:26:51.254Z,4.00
2022-12-31T02:30:07.242Z,4.05
2022-12-31T02:33:18.368Z,4.06
2022-12-31T02:36:09.958Z,4.10
2022-12-31T02:38:41.825Z,4.12
2022-12-31T02:41:36.868Z,4.07
2022-12-31T02:44:34.251Z,4.05
2022-12-31T02:47:25.555Z,4.10
2022-12-31T02:50:25.143Z,4.09
2022-12-31T02:53:37.926Z,4.17
2022-12-31T02:56:13.665Z,4.15
2022-12-31T02:59:24.986Z,4.12
2022-12-31T03:02:16.013Z,4.15
2022-12-31T03:04:56.045Z,4.22
2022-12-31T03:07:31.711Z,4.18
2022-12-31T03:09:59.462Z,4.19
2022-12-31T03:12:47.703Z,4.22
2022-12-31T03:15:40.390Z,4.26
2022-12-31T03:18:15.856Z,4.17
2022-12-31T03:21:06.813Z,4.12
2022-12-31T03:23:39.154Z,4.12
2022-12-31T03:26:10.681Z,4.16
2022-12-31T03:28:39.847Z,4.14
2022-12-31T03:31:06.651Z,4.22
2022-12-31T03:33:37.000Z,4.08
2022-12-31T03:36:10.017Z,4.09
2022-12-31T03:38:37.009Z,4.17
2022-12-31T03:41:03.819Z,4.19
2022-12-31T03:43:30.382Z,4.22
2022-12-31T03:45:59.815Z,4.22
2022-12-31T03:48:26.557Z,4.22
2022-12-31T03:50:53.154Z,4.23
2022-12-31T03:53:19.861Z,4.25
2022-12-31T03:55:51.849Z,4.39
2022-12-31T03:58:18.414Z,4.37
2022-12-31T04:00:45.123Z,4.35
2022-12-31T04:03:11.743Z,4.42
2022-12-31T04:05:38.353Z,4.38
2022-12-31T04:08:05.092Z,4.38
2022-12-31T04:10:31.656Z,4.42
2022-12-31T04:13:00.261Z,4.45
2022-12-31T04:15:26.855Z,4.41
2022-12-31T04:17:53.425Z,4.48
2022-12-31T04:20:19.998Z,4.49
2022-12-31T04:22:46.622Z,4.37
2022-12-31T04:25:13.375Z,4.35
2022-12-31T04:27:43.392Z,4.39
2022-12-31T04:30:11.534Z,4.52
2022-12-31T04:32:38.159Z,4.58
2022-12-31T04:35:05.491Z,4.61
2022-12-31T04:37:32.063Z,4.66
2022-12-31T04:40:05.134Z,4.71
2022-12-31T04:42:32.750Z,4.78
2022-12-31T04:44:59.333Z,4.76
2022-12-31T04:47:25.883Z,4.75
2022-12-31T04:49:52.514Z,4.72
2022-12-31T04:52:19.159Z,4.85
2022-12-31T04:54:45.719Z,4.78
2022-12-31T04:57:12.370Z,4.75
2022-12-31T04:59:38.917Z,4.86
2022-12-31T05:02:05.593Z,4.64
2022-12-31T05:04:32.428Z,4.55
2022-12-31T05:06:59.015Z,4.54
2022-12-31T05:09:27.496Z,4.56
2022-12-31T05:11:54.341Z,4.61
2022-12-31T05:14:20.915Z,4.62
2022-12-31T05:16:47.563Z,4.62
2022-12-31T05:19:14.202Z,4.62
2022-12-31T05:21:40.767Z,4.59
2022-12-31T05:24:07.965Z,4.52
2022-12-31T05:26:35.136Z,4.49
2022-12-31T05:29:01.742Z,4.50
2022-12-31T05:31:28.501Z,4.51
2022-12-31T05:33:55.101Z,4.53
2022-12-31T05:36:21.694Z,4.56
2022-12-31T05:38:48.341Z,4.63
2022-12-31T05:41:14.922Z,4.65
2022-12-31T05:43:41.487Z,4.64
2022-12-31T05:46:08.446Z,4.64
2022-12-31T05:48:35.058Z,4.58
2022-12-31T05:51:01.752Z,4.65
2022-12-31T05:53:28.295Z,4.66
2022-12-31T05:55:54.923Z,4.83
2022-12-31T05:58:21.491Z,4.88
2022-12-31T06:00:48.087Z,4.86
2022-12-31T06:03:14.775Z,4.91
2022-12-31T06:05:44.315Z,4.92
2022-12-31T06:08:12.146Z,4.73
2022-12-31T06:10:39.680Z,4.77
2022-12-31T06:13:06.381Z,4.80
2022-12-31T06:15:33.024Z,4.78
2022-12-31T06:17:59.886Z,4.75
2022-12-31T06:20:26.477Z,4.81
2022-12-31T06:22:53.306Z,4.87
2022-12-31T06:25:20.020Z,4.85
2022-12-31T06:27:46.603Z,4.92
2022-12-31T06:30:13.926Z,4.90
2022-12-31T06:32:40.801Z,4.93
2022-12-31T06:35:07.941Z,4.95
2022-12-31T06:37:34.524Z,5.01
2022-12-31T06:40:01.484Z,5.02
2022-12-31T06:42:30.864Z,4.94
2022-12-31T06:44:58.490Z,4.92
2022-12-31T06:47:25.839Z,4.89
2022-12-31T06:49:53.149Z,4.84
2022-12-31T06:52:19.893Z,4.80
2022-12-31T06:54:47.161Z,4.78
2022-12-31T06:57:14.468Z,4.75
2022-12-31T06:59:41.507Z,4.77
2022-12-31T07:02:41.098Z,4.71
2022-12-31T07:05:42.018Z,4.74
2022-12-31T07:08:55.926Z,4.76
2022-12-31T07:11:26.755Z,4.86
2022-12-31T07:14:28.951Z,4.75
2022-12-31T07:17:36.745Z,4.79
2022-12-31T07:20:21.459Z,4.80
2022-12-31T07:22:48.572Z,4.81
2022-12-31T07:25:17.402Z,4.75
2022-12-31T07:28:37.330Z,4.78
2022-12-31T07:31:22.033Z,4.91
2022-12-31T07:34:07.273Z,4.87
2022-12-31T07:37:17.676Z,4.87
2022-12-31T07:40:24.800Z,4.76
2022-12-31T07:43:07.573Z,4.86
2022-12-31T07:45:52.770Z,5.02
2022-12-31T07:48:27.367Z,5.16
2022-12-31T07:50:57.609Z,5.31
2022-12-31T07:53:24.925Z,5.59
2022-12-31T07:56:01.074Z,5.63
2022-12-31T07:58:49.213Z,5.70
2022-12-31T08:01:22.027Z,5.69
2022-12-31T08:04:46.930Z,5.55
2022-12-31T08:07:26.497Z,5.40
2022-12-31T08:10:36.081Z,5.40
2022-12-31T08:13:05.261Z,5.49
2022-12-31T08:15:32.232Z,5.48
2022-12-31T08:17:59.233Z,5.52
2022-12-31T08:20:27.114Z,5.50
2022-12-31T08:23:09.567Z,5.61
2022-12-31T08:26:04.284Z,5.58
2022-12-31T08:29:04.778Z,5.62
2022-12-31T08:32:02.776Z,5.66
2022-12-31T08:35:06.103Z,5.87
2022-12-31T08:38:01.596Z,5.77
2022-12-31T08:41:06.343Z,5.72
2022-12-31T08:44:22.602Z,5.77
2022-12-31T08:47:15.557Z,5.88
2022-12-31T08:49:42.508Z,5.96
2022-12-31T08:52:24.503Z,5.97
2022-12-31T08:54:51.543Z,6.00
2022-12-31T08:58:00.847Z,6.05
2022-12-31T09:00:52.987Z,6.10
2022-12-31T09:04:06.138Z,6.25
2022-12-31T09:07:03.278Z,6.16
2022-12-31T09:10:03.530Z,6.21
2022-12-31T09:13:13.130Z,6.26
2022-12-31T09:16:18.093Z,6.30
2022-12-31T09:19:04.971Z,6.40
2022-12-31T09:21:52.191Z,6.44
2022-12-31T09:24:39.502Z,6.55
2022-12-31T09:28:25.033Z,6.43
2022-12-31T09:31:19.087Z,6.42
2022-12-31T09:34:53.502Z,6.45
2022-12-31T09:37:50.632Z,6.33
2022-12-31T09:40:58.679Z,6.31
2022-12-31T09:44:34.928Z,6.48
2022-12-31T09:48:02.525Z,6.56
2022-12-31T09:51:01.575Z,6.59
2022-12-31T09:54:26.732Z,6.59
2022-12-31T09:57:40.674Z,6.64
2022-12-31T10:00:44.365Z,6.70
2022-12-31T10:04:05.387Z,6.74
2022-12-31T10:07:12.618Z,6.75
2022-12-31T10:10:40.932Z,6.77
2022-12-31T10:13:55.679Z,6.77
2022-12-31T10:17:20.099Z,6.78
2022-12-31T10:20:31.027Z,6.74
2022-12-31T10:23:52.144Z,6.83
2022-12-31T10:30:54.818Z,6.92
2022-12-31T10:34:09.936Z,6.92
2022-12-31T10:37:17.076Z,6.91
2022-12-31T10:40:21.568Z,6.93
2022-12-31T10:43:37.713Z,6.97
2022-12-31T10:46:43.519Z,7.04
2022-12-31T11:04:03.668Z,7.62
2022-12-31T11:07:21.677Z,7.66
2022-12-31T11:10:49.331Z,7.61
2022-12-31T11:14:10.145Z,7.66
2022-12-31T11:17:03.190Z,7.69
2022-12-31T11:20:46.561Z,7.75
2022-12-31T11:23:54.847Z,7.78
2022-12-31T11:27:19.881Z,7.79
2022-12-31T11:30:29.818Z,7.85
2022-12-31T11:33:58.000Z,7.88
2022-12-31T11:37:10.947Z,7.90
2022-12-31T11:40:39.788Z,7.96
2022-12-31T11:43:38.375Z,8.04
2022-12-31T11:47:14.309Z,8.11
2022-12-31T11:50:42.472Z,8.21
2022-12-31T11:53:57.624Z,8.20
2022-12-31T11:56:53.745Z,8.28
2022-12-31T11:59:40.795Z,8.36
2022-12-31T12:02:45.540Z,8.46
2022-12-31T12:05:35.147Z,8.48
2022-12-31T12:08:22.273Z,8.55
2022-12-31T12:11:21.452Z,8.60
2022-12-31T12:14:21.897Z,8.68
2022-12-31T12:17:32.079Z,8.72
2022-12-31T12:20:24.673Z,8.87
2022-12-31T12:23:18.027Z,8.87
2022-12-31T12:26:06.243Z,8.77
2022-12-31T12:28:53.180Z,8.74
2022-12-31T12:31:40.479Z,8.67
2022-12-31T12:34:41.967Z,8.63
2022-12-31T12:37:35.463Z,8.67
2022-12-31T12:40:28.353Z,8.60
2022-12-31T12:43:27.675Z,8.52
2022-12-31T12:46:29.702Z,8.50
2022-12-31T12:49:24.172Z,8.46
2022-12-31T12:52:48.425Z,8.42
2022-12-31T12:55:54.400Z,8.38
2022-12-31T12:59:19.443Z,8.45
2022-12-31T13:02:48.795Z,8.42
2022-12-31T13:06:22.564Z,8.39
2022-12-31T13:09:31.803Z,8.43
2022-12-31T13:12:48.956Z,8.47
2022-12-31T13:15:47.585Z,8.42
2022-12-31T13:22:38.251Z,8.47
2022-12-31T13:28:43.107Z,8.63
2022-12-31T13:31:34.472Z,8.69
2022-12-31T13:34:27.173Z,8.75
2022-12-31T13:37:37.951Z,8.78
2022-12-31T13:40:31.910Z,8.79
2022-12-31T13:43:30.117Z,8.81
2022-12-31T13:46:23.673Z,8.82
2022-12-31T13:49:37.738Z,8.82
2022-12-31T13:52:51.506Z,8.84
2022-12-31T13:55:42.711Z,8.77
2022-12-31T13:58:42.691Z,8.73
2022-12-31T14:01:43.771Z,8.78
2022-12-31T14:04:37.706Z,8.80
2022-12-31T14:07:37.638Z,8.84
2022-12-31T14:10:57.947Z,8.84
2022-12-31T14:14:24.930Z,8.94
2022-12-31T14:17:53.484Z,8.98
2022-12-31T14:21:10.180Z,9.02
2022-12-31T14:24:12.479Z,9.04
2022-12-31T14:27:04.227Z,8.97
2022-12-31T14:29:59.359Z,8.98
2022-12-31T14:33:12.208Z,9.00
2022-12-31T14:36:40.675Z,8.86
2022-12-31T14:39:54.337Z,8.68
2022-12-31T14:43:09.694Z,8.54
2022-12-31T14:46:12.498Z,8.50
2022-12-31T14:49:36.721Z,8.41
2022-12-31T14:52:29.223Z,8.28
2022-12-31T14:55:39.552Z,8.15
2022-12-31T14:58:35.393Z,8.08
2022-12-31T15:01:26.014Z,8.03
2022-12-31T15:04:15.797Z,7.99
2022-12-31T15:07:29.096Z,7.95
2022-12-31T15:10:21.916Z,7.93
2022-12-31T15:13:57.149Z,7.89
2022-12-31T15:16:57.340Z,7.97
2022-12-31T15:19:54.690Z,7.91
2022-12-31T15:22:50.455Z,7.86
2022-12-31T15:25:41.457Z,7.86
2022-12-31T15:28:40.053Z,7.93
2022-12-31T15:31:27.790Z,7.85
2022-12-31T15:34:33.754Z,7.80
2022-12-31T15:37:34.237Z,7.77
2022-12-31T15:40:25.022Z,7.72
2022-12-31T15:43:22.818Z,7.72
2022-12-31T15:46:17.174Z,7.81
2022-12-31T15:49:15.558Z,7.72
2022-12-31T15:52:29.460Z,7.66
2022-12-31T15:55:30.087Z,7.60
2022-12-31T15:58:20.957Z,7.60
2022-12-31T16:01:34.923Z,7.57
2022-12-31T16:04:25.592Z,7.53
2022-12-31T16:07:12.897Z,7.51
2022-12-31T16:10:02.675Z,7.47
2022-12-31T16:12:50.033Z,7.56
2022-12-31T16:15:37.027Z,7.51
2022-12-31T16:18:24.032Z,7.51
2022-12-31T16:21:35.429Z,7.46
2022-12-31T16:24:30.997Z,7.45
2022-12-31T16:27:18.009Z,7.48
2022-12-31T16:30:18.553Z,7.37
2022-12-31T16:33:11.672Z,7.31
2022-12-31T16:36:00.929Z,7.29
2022-12-31T16:38:48.254Z,7.28
2022-12-31T16:41:42.879Z,7.33
2022-12-31T16:44:30.578Z,7.41
2022-12-31T16:47:28.904Z,7.46
2022-12-31T16:50:20.023Z,7.40
2022-12-31T16:53:07.854Z,7.37
2022-12-31T16:56:16.310Z,7.37
2022-12-31T16:59:17.521Z,7.27
2022-12-31T17:02:24.927Z,7.23
2022-12-31T17:05:20.213Z,7.23
2022-12-31T17:08:28.648Z,7.23
2022-12-31T17:11:30.647Z,7.20
2022-12-31T17:14:29.134Z,7.18
2022-12-31T17:17:27.775Z,7.15
2022-12-31T17:20:26.194Z,7.12
2022-12-31T17:23:23.234Z,7.10
2022-12-31T17:26:22.056Z,7.08
2022-12-31T17:29:25.935Z,7.05
2022-12-31T17:32:37.427Z,7.06
2022-12-31T17:35:30.519Z,7.12
2022-12-31T17:38:43.544Z,7.12
2022-12-31T17:41:30.471Z,7.12
2022-12-31T17:44:21.070Z,7.12
2022-12-31T17:47:13.887Z,7.07
2022-12-31T17:50:19.145Z,7.09
2022-12-31T17:53:11.838Z,7.03
2022-12-31T17:56:03.110Z,7.02
2022-12-31T17:58:52.358Z,6.99
2022-12-31T18:01:39.498Z,6.94
2022-12-31T18:04:26.624Z,6.95
2022-12-31T18:07:13.567Z,6.93
2022-12-31T18:10:00.459Z,6.94
2022-12-31T18:12:48.888Z,6.86
2022-12-31T18:15:35.809Z,6.79
2022-12-31T18:18:28.114Z,6.73
2022-12-31T18:21:35.904Z,6.74
2022-12-31T18:24:26.002Z,6.73
2022-12-31T18:27:18.577Z,6.77
2022-12-31T18:30:06.872Z,6.63
2022-12-31T18:32:54.638Z,6.60
2022-12-31T18:36:17.065Z,6.62
2022-12-31T18:38:50.292Z,6.60
2022-12-31T18:41:46.572Z,6.59
2022-12-31T18:44:33.486Z,6.61
2022-12-31T18:47:23.841Z,6.64
2022-12-31T18:50:16.075Z,6.68
2022-12-31T18:53:03.057Z,6.70
2022-12-31T18:55:57.619Z,6.66
2022-12-31T18:58:45.330Z,6.66
2022-12-31T19:01:35.128Z,6.64
2022-12-31T19:04:27.673Z,6.63
2022-12-31T19:07:15.310Z,6.57
2022-12-31T19:10:02.236Z,6.51
2022-12-31T19:12:49.605Z,6.49
2022-12-31T19:15:46.517Z,6.46
2022-12-31T19:18:34.371Z,6.36
2022-12-31T19:21:22.873Z,6.36
2022-12-31T19:24:22.903Z,6.33
2022-12-31T19:27:09.904Z,6.38
2022-12-31T19:29:56.846Z,6.37
2022-12-31T19:32:43.916Z,6.34
2022-12-31T19:35:30.915Z,6.35
2022-12-31T19:38:25.925Z,6.35
2022-12-31T19:41:20.217Z,6.37
2022-12-31T19:44:14.198Z,6.39
2022-12-31T19:47:01.133Z,6.41
2022-12-31T19:49:48.023Z,6.40
2022-12-31T19:52:34.981Z,6.39
2022-12-31T19:55:25.046Z,6.36
2022-12-31T19:58:27.380Z,6.30
2022-12-31T20:01:20.974Z,6.31
2022-12-31T20:04:07.914Z,6.27
2022-12-31T20:06:54.777Z,6.26
2022-12-31T20:09:41.719Z,6.30
2022-12-31T20:12:28.613Z,6.32
2022-12-31T20:15:16.362Z,6.34
2022-12-31T20:18:03.240Z,6.31
2022-12-31T20:20:55.610Z,6.24
2022-12-31T20:23:43.099Z,6.22
2022-12-31T20:26:30.429Z,6.31
2022-12-31T20:29:17.394Z,6.32
2022-12-31T20:32:04.595Z,6.33
2022-12-31T20:34:51.510Z,6.32
2022-12-31T20:37:38.449Z,6.31
2022-12-31T20:40:25.312Z,6.12
2022-12-31T20:43:12.224Z,5.95
2022-12-31T20:45:59.174Z,5.93
2022-12-31T20:48:47.251Z,5.93
2022-12-31T20:51:35.156Z,5.88
2022-12-31T20:54:22.075Z,5.87
2022-12-31T20:57:08.934Z,5.92
2022-12-31T20:59:55.805Z,5.83
2022-12-31T21:02:44.321Z,5.85
2022-12-31T21:05:33.177Z,5.83
2022-12-31T21:08:21.219Z,5.85
2022-12-31T21:11:41.433Z,5.84
2022-12-31T21:14:28.367Z,5.86
2022-12-31T21:17:15.285Z,5.87
2022-12-31T21:20:02.264Z,5.89
2022-12-31T21:22:49.200Z,5.88
2022-12-31T21:25:36.098Z,5.94
2022-12-31T21:28:23.078Z,6.03
2022-12-31T21:31:13.022Z,6.01
2022-12-31T21:33:59.997Z,6.01
2022-12-31T21:36:46.914Z,5.98
2022-12-31T21:39:33.861Z,5.97
2022-12-31T21:42:20.761Z,5.95
2022-12-31T21:45:08.710Z,5.96
2022-12-31T21:48:17.733Z,5.98
2022-12-31T21:51:08.574Z,6.01
2022-12-31T21:53:56.068Z,6.07
2022-12-31T21:56:42.982Z,6.00
2022-12-31T22:00:03.161Z,5.96
2022-12-31T22:03:14.443Z,5.95
2022-12-31T22:06:13.097Z,5.92
2022-12-31T22:09:00.067Z,5.91
2022-12-31T22:11:47.725Z,5.89
2022-12-31T22:14:35.210Z,5.85
2022-12-31T22:17:22.119Z,5.82
2022-12-31T22:20:28.405Z,5.78
2022-12-31T22:23:16.136Z,5.82
2022-12-31T22:26:04.046Z,5.85
2022-12-31T22:28:51.156Z,5.86
2022-12-31T22:31:38.071Z,5.86
2022-12-31T22:34:25.904Z,5.82
2022-12-31T22:37:35.748Z,5.89
2022-12-31T22:40:19.807Z,5.86
2022-12-31T22:43:06.723Z,5.89
2022-12-31T22:45:53.643Z,5.84
2022-12-31T22:48:41.872Z,5.79
2022-12-31T22:51:55.826Z,5.77
2022-12-31T22:54:37.368Z,5.68
2022-12-31T22:57:24.281Z,5.64
2022-12-31T23:00:13.389Z,5.58
2022-12-31T23:03:00.328Z,5.54
2022-12-31T23:05:51.508Z,5.55
2022-12-31T23:08:38.449Z,5.52
2022-12-31T23:11:25.412Z,5.55
2022-12-31T23:14:35.870Z,5.51
2022-12-31T23:17:45.474Z,5.55
2022-12-31T23:20:51.138Z,5.54
2022-12-31T23:23:38.058Z,5.57
2022-12-31T23:26:24.961Z,5.59
2022-12-31T23:29:12.026Z,5.52
2022-12-31T23:31:59.186Z,5.50
2022-12-31T23:34:46.847Z,5.50
2022-12-31T23:37:33.833Z,5.53
2022-12-31T23:40:21.773Z,5.40
2022-12-31T23:43:17.960Z,5.24
2022-12-31T23:46:04.878Z,5.07
2022-12-31T23:48:51.960Z,5.05
2022-12-31T23:51:40.216Z,4.98
2022-12-31T23:54:28.201Z,4.97
2022-12-31T23:57:15.094Z,5.10
